createdAt,value
2022-07-26T00:04:42.440Z,3.17
2022-07-26T00:09:48.324Z,3.13
2022-07-26T00:14:52.040Z,3.60
2022-07-26T00:19:55.374Z,2.80
2022-07-26T00:24:58.885Z,3.38
2022-07-26T00:30:02.120Z,2.85
2022-07-26T00:35:06.520Z,3.50
2022-07-26T00:40:10.560Z,3.83
2022-07-26T00:45:14.780Z,2.80
2022-07-26T00:50:19.753Z,3.72
2022-07-26T00:55:23.100Z,2.90
2022-07-26T01:00:29.407Z,2.92
2022-07-26T01:05:33.822Z,2.95
2022-07-26T01:10:36.860Z,2.88
2022-07-26T01:15:40.476Z,3.28
2022-07-26T01:20:45.560Z,3.25
2022-07-26T01:25:48.883Z,3.30
2022-07-26T01:30:54.239Z,2.60
2022-07-26T01:35:57.441Z,3.67
2022-07-26T01:41:01.113Z,2.97
2022-07-26T01:46:06.723Z,3.17
2022-07-26T01:51:10.040Z,3.22
2022-07-26T01:56:14.680Z,3.05
2022-07-26T02:01:39.178Z,3.33
2022-07-26T02:06:41.592Z,2.97
2022-07-26T02:11:44.701Z,3.22
2022-07-26T02:16:48.019Z,2.63
2022-07-26T02:21:51.661Z,3.25
2022-07-26T02:26:54.931Z,2.80
2022-07-26T02:31:58.689Z,4.25
2022-07-26T02:37:02.180Z,3.15
2022-07-26T02:42:05.680Z,3.47
2022-07-26T02:47:08.920Z,3.20
2022-07-26T02:52:15.968Z,3.40
2022-07-26T02:57:19.341Z,3.22
2022-07-26T03:02:22.574Z,5.20
2022-07-26T03:07:26.129Z,6.07
2022-07-26T03:12:29.380Z,4.13
2022-07-26T03:17:32.961Z,3.72
2022-07-26T03:22:36.600Z,4.18
2022-07-26T03:27:39.761Z,4.32
2022-07-26T03:32:43.521Z,4.20
2022-07-26T03:37:46.825Z,3.85
2022-07-26T03:42:50.508Z,3.80
2022-07-26T03:47:54.668Z,4.15
2022-07-26T03:52:58.141Z,3.78
2022-07-26T03:58:01.401Z,3.67
2022-07-26T04:03:04.749Z,4.40
2022-07-26T04:08:08.041Z,3.60
2022-07-26T04:13:11.224Z,3.70
2022-07-26T04:18:14.941Z,3.78
2022-07-26T04:23:19.422Z,3.88
2022-07-26T04:28:22.601Z,3.72
2022-07-26T04:33:26.398Z,4.22
2022-07-26T04:38:29.582Z,3.72
2022-07-26T04:43:33.014Z,3.97
2022-07-26T04:48:38.589Z,4.00
2022-07-26T04:53:41.778Z,5.13
2022-07-26T04:58:45.381Z,4.50
2022-07-26T05:03:48.874Z,5.78
2022-07-26T05:08:52.081Z,6.28
2022-07-26T05:13:55.382Z,6.55
2022-07-26T05:18:59.001Z,6.97
2022-07-26T05:24:02.260Z,6.97
2022-07-26T05:29:05.461Z,7.43
2022-07-26T05:34:09.499Z,6.93
2022-07-26T05:39:15.947Z,7.43
2022-07-26T05:44:20.160Z,9.13
2022-07-26T05:49:24.523Z,8.15
2022-07-26T05:54:28.082Z,8.55
2022-07-26T05:59:31.801Z,8.68
2022-07-26T06:04:35.343Z,9.80
2022-07-26T06:09:38.947Z,9.65
2022-07-26T06:14:42.380Z,10.60
2022-07-26T06:19:47.764Z,9.82
2022-07-26T06:24:52.803Z,11.27
2022-07-26T06:30:02.818Z,11.15
2022-07-26T06:35:07.853Z,11.75
2022-07-26T06:40:12.161Z,11.98
2022-07-26T06:45:17.002Z,12.30
2022-07-26T06:50:20.384Z,12.32
2022-07-26T06:55:29.016Z,11.93
2022-07-26T07:00:32.301Z,12.35
2022-07-26T07:05:35.644Z,12.73
2022-07-26T07:10:39.271Z,12.93
2022-07-26T07:15:42.553Z,11.82
2022-07-26T07:20:45.744Z,10.32
2022-07-26T07:25:49.801Z,8.35
2022-07-26T07:30:54.761Z,8.43
2022-07-26T07:36:00.215Z,8.25
2022-07-26T07:41:09.561Z,7.80
2022-07-26T07:46:13.445Z,7.28
2022-07-26T07:51:16.880Z,5.93
2022-07-26T07:56:21.407Z,6.43
2022-07-26T08:01:25.061Z,4.85
2022-07-26T08:06:51.160Z,3.97
2022-07-26T08:11:54.757Z,4.28
2022-07-26T08:16:58.009Z,5.32
2022-07-26T08:22:08.972Z,5.45
2022-07-26T08:27:12.404Z,5.60
2022-07-26T08:32:46.480Z,5.00
2022-07-26T08:51:45.339Z,4.70
2022-07-26T08:56:54.139Z,5.57
2022-07-26T09:02:03.902Z,4.55
2022-07-26T09:07:19.785Z,4.30
2022-07-26T09:12:26.280Z,5.85
2022-07-26T09:17:41.333Z,4.88
2022-07-26T09:23:16.990Z,5.07
2022-07-26T09:28:30.062Z,4.60
2022-07-26T09:33:47.226Z,5.07
2022-07-26T09:38:53.781Z,4.25
2022-07-26T09:44:01.193Z,4.13
2022-07-26T09:49:21.487Z,4.03
2022-07-26T09:54:30.982Z,3.28
2022-07-26T09:59:34.539Z,4.20
2022-07-26T10:04:37.894Z,3.88
2022-07-26T10:10:00.207Z,4.28
2022-07-26T10:15:03.801Z,3.63
2022-07-26T10:20:16.959Z,3.65
2022-07-26T10:25:21.003Z,3.80
2022-07-26T10:30:34.215Z,4.05
2022-07-26T10:35:43.981Z,3.95
2022-07-26T10:41:01.679Z,3.45
2022-07-26T10:46:17.414Z,4.05
2022-07-26T10:51:29.070Z,3.70
2022-07-26T10:56:33.680Z,3.35
2022-07-26T11:01:38.688Z,3.53
2022-07-26T11:06:42.260Z,3.85
2022-07-26T11:11:47.533Z,3.03
2022-07-26T11:16:51.383Z,3.40
2022-07-26T11:21:56.862Z,3.47
2022-07-26T11:27:04.970Z,3.67
2022-07-26T11:32:17.974Z,3.10
2022-07-26T11:37:21.580Z,3.25
2022-07-26T11:42:24.820Z,2.33
2022-07-26T11:47:27.934Z,2.28
2022-07-26T11:52:32.662Z,2.20
2022-07-26T11:57:35.844Z,2.33
2022-07-26T12:02:39.440Z,2.50
2022-07-26T12:08:04.835Z,2.45
2022-07-26T12:13:16.665Z,2.60
2022-07-26T12:18:38.675Z,2.40
2022-07-26T12:23:47.102Z,2.13
2022-07-26T12:28:50.391Z,2.20
2022-07-26T12:33:54.000Z,2.55
2022-07-26T12:38:58.997Z,3.03
2022-07-26T12:44:02.200Z,2.65
2022-07-26T12:49:06.211Z,2.50
2022-07-26T12:54:09.907Z,2.67
2022-07-26T12:59:17.599Z,2.53
2022-07-26T13:04:21.274Z,2.88
2022-07-26T13:09:24.462Z,2.38
2022-07-26T13:14:27.903Z,2.85
2022-07-26T13:19:31.596Z,2.65
2022-07-26T13:24:37.500Z,2.60
2022-07-26T13:29:41.620Z,2.85
2022-07-26T13:34:44.882Z,2.63
2022-07-26T13:39:48.000Z,1.90
2022-07-26T13:44:51.001Z,1.60
2022-07-26T13:49:54.262Z,2.08
2022-07-26T13:54:57.680Z,2.38
2022-07-26T14:00:00.872Z,2.15
2022-07-26T14:05:04.104Z,2.08
2022-07-26T14:10:07.825Z,2.30
2022-07-26T14:15:15.208Z,2.80
2022-07-26T14:20:21.976Z,2.08
2022-07-26T14:25:27.152Z,2.72
2022-07-26T14:30:30.501Z,2.13
2022-07-26T14:35:33.541Z,2.03
2022-07-26T14:40:37.441Z,2.50
2022-07-26T14:45:40.522Z,2.25
2022-07-26T14:51:08.102Z,2.50
2022-07-26T14:56:08.580Z,2.00
2022-07-26T15:01:12.204Z,2.30
2022-07-26T15:06:15.420Z,2.50
2022-07-26T15:11:19.081Z,2.15
2022-07-26T15:16:23.102Z,2.63
2022-07-26T15:21:27.593Z,1.90
2022-07-26T15:26:31.862Z,1.92
2022-07-26T15:31:37.045Z,1.80
2022-07-26T15:36:41.425Z,1.90
2022-07-26T15:41:45.541Z,2.00
2022-07-26T15:46:49.723Z,2.10
2022-07-26T15:51:53.181Z,1.70
2022-07-26T15:56:56.281Z,2.10
2022-07-26T16:01:59.730Z,1.83
2022-07-26T16:07:03.304Z,2.22
2022-07-26T16:12:07.501Z,1.85
2022-07-26T16:17:10.731Z,2.20
2022-07-26T16:22:14.025Z,2.10
2022-07-26T16:27:17.297Z,1.92
2022-07-26T16:32:21.748Z,1.90
2022-07-26T16:37:25.196Z,1.67
2022-07-26T16:42:29.032Z,1.85
2022-07-26T16:47:32.480Z,1.40
2022-07-26T16:52:35.842Z,1.27
2022-07-26T16:57:39.741Z,1.50
2022-07-26T17:02:43.110Z,1.13
2022-07-26T17:07:46.541Z,1.38
2022-07-26T17:12:50.144Z,1.40
2022-07-26T17:17:53.517Z,1.08
2022-07-26T17:22:56.811Z,1.08
2022-07-26T17:28:00.163Z,0.90
2022-07-26T17:33:03.534Z,0.88
2022-07-26T17:38:06.779Z,1.10
2022-07-26T17:43:11.323Z,0.88
2022-07-26T17:48:14.909Z,1.05
2022-07-26T17:53:18.280Z,1.00
2022-07-26T17:58:25.563Z,1.00
2022-07-26T18:03:28.742Z,1.38
2022-07-26T18:08:31.723Z,1.17
2022-07-26T18:13:34.961Z,1.02
2022-07-26T18:18:37.882Z,1.30
2022-07-26T18:24:00.398Z,1.58
2022-07-26T18:29:04.725Z,1.15
2022-07-26T18:34:07.783Z,1.40
2022-07-26T18:39:11.144Z,1.48
2022-07-26T18:44:14.981Z,1.20
2022-07-26T18:49:18.741Z,1.05
2022-07-26T18:54:23.841Z,1.30
2022-07-26T18:59:26.827Z,1.02
2022-07-26T19:04:30.331Z,2.30
2022-07-26T19:09:33.473Z,1.30
2022-07-26T19:14:36.979Z,1.42
2022-07-26T19:19:40.209Z,1.20
2022-07-26T19:24:43.360Z,1.35
2022-07-26T19:29:46.263Z,1.40
2022-07-26T19:34:50.382Z,1.15
2022-07-26T19:39:56.064Z,1.40
2022-07-26T19:45:00.638Z,1.70
2022-07-26T19:50:09.516Z,1.20
2022-07-26T19:55:12.796Z,1.88
2022-07-26T20:00:16.195Z,1.75
2022-07-26T20:05:19.196Z,1.10
2022-07-26T20:10:24.564Z,1.70
2022-07-26T20:15:30.782Z,1.55
2022-07-26T20:20:33.780Z,1.45
2022-07-26T20:25:37.251Z,1.63
2022-07-26T20:30:42.399Z,0.93
2022-07-26T20:35:52.933Z,0.90
2022-07-26T20:41:01.429Z,0.70
2022-07-26T20:46:08.800Z,0.70
2022-07-26T20:51:16.760Z,0.73
2022-07-26T20:56:23.320Z,0.70
2022-07-26T21:01:31.418Z,1.00
2022-07-26T21:06:35.641Z,0.60
2022-07-26T21:11:40.786Z,0.70
2022-07-26T21:16:43.850Z,0.70
2022-07-26T21:21:47.196Z,0.60
2022-07-26T21:26:50.441Z,0.50
2022-07-26T21:31:54.556Z,0.68
2022-07-26T21:37:01.134Z,0.60
2022-07-26T21:42:05.208Z,0.82
2022-07-26T21:47:11.241Z,0.70
2022-07-26T21:52:15.360Z,1.00
2022-07-26T21:57:21.697Z,0.90
2022-07-26T22:03:22.103Z,1.02
2022-07-26T22:08:26.241Z,0.60
2022-07-26T22:13:29.253Z,0.73
2022-07-26T22:19:28.891Z,0.82
2022-07-26T22:24:41.401Z,0.93
2022-07-26T22:29:44.709Z,0.70
2022-07-26T22:34:48.061Z,0.82
2022-07-26T22:39:51.252Z,0.90
2022-07-26T22:44:54.681Z,0.93
2022-07-26T22:49:57.932Z,1.10
2022-07-26T22:55:01.725Z,0.93
2022-07-26T23:00:08.171Z,0.87
2022-07-26T23:05:12.890Z,1.00
2022-07-26T23:10:17.322Z,1.07
2022-07-26T23:15:20.602Z,0.87
2022-07-26T23:20:24.347Z,1.00
2022-07-26T23:25:27.982Z,0.90
2022-07-26T23:30:31.861Z,1.20
2022-07-26T23:35:35.182Z,1.30
2022-07-26T23:40:38.524Z,0.77
2022-07-26T23:45:41.861Z,1.30
2022-07-26T23:50:45.102Z,1.17
2022-07-26T23:55:49.319Z,1.50
